sensor_id;sensor_type;location;lat;lon;timestamp;pressure;altitude;pressure_sealevel;temperature;humidity
54556;BME280;57291;37.520;15.106;2023-04-28T00:01:44;101614.56;;;15.07;69.05
54556;BME280;57291;37.520;15.106;2023-04-28T00:04:11;101612.13;;;15.06;67.58
54556;BME280;57291;37.520;15.106;2023-04-28T00:06:39;101615.38;;;15.08;66.47
54556;BME280;57291;37.520;15.106;2023-04-28T00:09:07;101615.66;;;15.06;64.73
54556;BME280;57291;37.520;15.106;2023-04-28T00:11:37;101608.56;;;15.05;63.88
54556;BME280;57291;37.520;15.106;2023-04-28T00:14:05;101607.25;;;15.02;63.45
54556;BME280;57291;37.520;15.106;2023-04-28T00:16:32;101604.22;;;15.04;63.11
54556;BME280;57291;37.520;15.106;2023-04-28T00:18:59;101605.53;;;15.07;62.58
54556;BME280;57291;37.520;15.106;2023-04-28T00:21:26;101607.44;;;15.06;61.32
54556;BME280;57291;37.520;15.106;2023-04-28T00:23:55;101601.16;;;15.06;61.26
54556;BME280;57291;37.520;15.106;2023-04-28T00:26:22;101606.84;;;15.09;60.34
54556;BME280;57291;37.520;15.106;2023-04-28T00:28:49;101599.44;;;15.10;59.90
54556;BME280;57291;37.520;15.106;2023-04-28T00:31:16;101594.69;;;15.15;59.29
54556;BME280;57291;37.520;15.106;2023-04-28T00:33:43;101606.03;;;15.22;58.30
54556;BME280;57291;37.520;15.106;2023-04-28T00:36:11;101603.19;;;15.28;57.84
54556;BME280;57291;37.520;15.106;2023-04-28T00:38:38;101607.75;;;15.32;57.54
54556;BME280;57291;37.520;15.106;2023-04-28T00:41:05;101600.53;;;15.36;57.46
54556;BME280;57291;37.520;15.106;2023-04-28T00:43:43;101601.78;;;15.44;56.81
54556;BME280;57291;37.520;15.106;2023-04-28T00:46:19;101587.75;;;15.45;56.67
54556;BME280;57291;37.520;15.106;2023-04-28T00:48:47;101588.25;;;15.47;56.37
54556;BME280;57291;37.520;15.106;2023-04-28T00:51:15;101595.34;;;15.48;56.17
54556;BME280;57291;37.520;15.106;2023-04-28T00:53:44;101595.56;;;15.52;55.92
54556;BME280;57291;37.520;15.106;2023-04-28T00:56:11;101594.13;;;15.55;55.87
54556;BME280;57291;37.520;15.106;2023-04-28T00:58:38;101589.34;;;15.60;55.60
54556;BME280;57291;37.520;15.106;2023-04-28T01:01:07;101584.56;;;15.66;54.97
54556;BME280;57291;37.520;15.106;2023-04-28T01:03:37;101596.06;;;15.68;55.12
54556;BME280;57291;37.520;15.106;2023-04-28T01:06:07;101599.59;;;15.68;55.14
54556;BME280;57291;37.520;15.106;2023-04-28T01:08:36;101595.50;;;15.66;55.09
54556;BME280;57291;37.520;15.106;2023-04-28T01:11:09;101595.84;;;15.64;54.66
54556;BME280;57291;37.520;15.106;2023-04-28T01:13:59;101582.34;;;15.68;53.89
54556;BME280;57291;37.520;15.106;2023-04-28T01:16:30;101594.13;;;15.68;53.58
54556;BME280;57291;37.520;15.106;2023-04-28T01:18:59;101581.00;;;15.65;53.37
54556;BME280;57291;37.520;15.106;2023-04-28T01:21:32;101579.50;;;15.59;53.45
54556;BME280;57291;37.520;15.106;2023-04-28T01:24:12;101586.72;;;15.55;53.57
54556;BME280;57291;37.520;15.106;2023-04-28T01:26:39;101582.78;;;15.47;53.76
54556;BME280;57291;37.520;15.106;2023-04-28T01:29:06;101582.06;;;15.42;53.87
54556;BME280;57291;37.520;15.106;2023-04-28T01:31:34;101582.81;;;15.34;54.05
54556;BME280;57291;37.520;15.106;2023-04-28T01:34:01;101591.03;;;15.34;54.02
54556;BME280;57291;37.520;15.106;2023-04-28T01:36:29;101591.63;;;15.31;54.22
54556;BME280;57291;37.520;15.106;2023-04-28T01:38:56;101593.34;;;15.27;54.03
54556;BME280;57291;37.520;15.106;2023-04-28T01:41:23;101605.53;;;15.20;54.47
54556;BME280;57291;37.520;15.106;2023-04-28T01:43:50;101595.28;;;15.12;54.49
54556;BME280;57291;37.520;15.106;2023-04-28T01:46:18;101597.03;;;15.08;54.90
54556;BME280;57291;37.520;15.106;2023-04-28T01:48:45;101595.09;;;15.09;54.73
54556;BME280;57291;37.520;15.106;2023-04-28T01:51:13;101587.19;;;15.07;54.41
54556;BME280;57291;37.520;15.106;2023-04-28T01:53:40;101596.50;;;15.06;54.56
54556;BME280;57291;37.520;15.106;2023-04-28T01:56:07;101594.38;;;15.03;54.50
54556;BME280;57291;37.520;15.106;2023-04-28T01:58:34;101602.38;;;14.99;54.89
54556;BME280;57291;37.520;15.106;2023-04-28T02:01:02;101604.72;;;14.92;54.97
54556;BME280;57291;37.520;15.106;2023-04-28T02:03:29;101604.81;;;14.87;55.50
54556;BME280;57291;37.520;15.106;2023-04-28T02:05:57;101600.56;;;14.81;56.30
54556;BME280;57291;37.520;15.106;2023-04-28T02:08:24;101607.72;;;14.77;55.84
54556;BME280;57291;37.520;15.106;2023-04-28T02:10:51;101597.50;;;14.83;57.01
54556;BME280;57291;37.520;15.106;2023-04-28T02:13:20;101605.31;;;14.75;59.59
54556;BME280;57291;37.520;15.106;2023-04-28T02:15:47;101608.53;;;14.64;60.75
54556;BME280;57291;37.520;15.106;2023-04-28T02:18:14;101607.28;;;14.56;61.30
54556;BME280;57291;37.520;15.106;2023-04-28T02:20:41;101616.25;;;14.43;62.37
54556;BME280;57291;37.520;15.106;2023-04-28T02:23:08;101613.91;;;14.36;62.45
54556;BME280;57291;37.520;15.106;2023-04-28T02:25:36;101614.28;;;14.29;62.47
54556;BME280;57291;37.520;15.106;2023-04-28T02:28:03;101613.25;;;14.25;62.70
54556;BME280;57291;37.520;15.106;2023-04-28T02:30:33;101608.38;;;14.22;62.60
54556;BME280;57291;37.520;15.106;2023-04-28T02:33:00;101606.75;;;14.21;61.51
54556;BME280;57291;37.520;15.106;2023-04-28T02:35:27;101611.72;;;14.19;61.01
54556;BME280;57291;37.520;15.106;2023-04-28T02:37:55;101612.84;;;14.18;60.83
54556;BME280;57291;37.520;15.106;2023-04-28T02:40:22;101604.63;;;14.18;60.71
54556;BME280;57291;37.520;15.106;2023-04-28T02:42:49;101610.38;;;14.17;60.73
54556;BME280;57291;37.520;15.106;2023-04-28T02:45:16;101622.44;;;14.16;60.17
54556;BME280;57291;37.520;15.106;2023-04-28T02:47:43;101617.25;;;14.14;59.50
54556;BME280;57291;37.520;15.106;2023-04-28T02:50:10;101620.28;;;14.13;59.72
54556;BME280;57291;37.520;15.106;2023-04-28T02:52:38;101618.69;;;14.12;59.94
54556;BME280;57291;37.520;15.106;2023-04-28T02:55:05;101620.09;;;14.09;59.91
54556;BME280;57291;37.520;15.106;2023-04-28T02:57:32;101620.09;;;14.09;59.12
54556;BME280;57291;37.520;15.106;2023-04-28T03:00:00;101631.50;;;14.11;59.63
54556;BME280;57291;37.520;15.106;2023-04-28T03:02:35;101634.03;;;14.07;59.17
54556;BME280;57291;37.520;15.106;2023-04-28T03:05:02;101638.69;;;14.07;59.16
54556;BME280;57291;37.520;15.106;2023-04-28T03:07:29;101635.94;;;14.07;59.14
54556;BME280;57291;37.520;15.106;2023-04-28T03:09:56;101641.94;;;14.09;62.03
54556;BME280;57291;37.520;15.106;2023-04-28T03:12:23;101637.66;;;14.03;63.43
54556;BME280;57291;37.520;15.106;2023-04-28T03:14:50;101642.38;;;13.97;65.04
54556;BME280;57291;37.520;15.106;2023-04-28T03:17:18;101643.50;;;13.96;66.33
54556;BME280;57291;37.520;15.106;2023-04-28T03:19:45;101640.69;;;14.01;68.40
54556;BME280;57291;37.520;15.106;2023-04-28T03:22:12;101648.38;;;13.99;69.04
54556;BME280;57291;37.520;15.106;2023-04-28T03:24:39;101644.75;;;14.04;69.55
54556;BME280;57291;37.520;15.106;2023-04-28T03:27:06;101653.03;;;13.99;69.85
54556;BME280;57291;37.520;15.106;2023-04-28T03:29:35;101647.41;;;13.90;70.15
54556;BME280;57291;37.520;15.106;2023-04-28T03:32:02;101650.94;;;13.91;70.42
54556;BME280;57291;37.520;15.106;2023-04-28T03:34:30;101648.31;;;13.86;70.68
54556;BME280;57291;37.520;15.106;2023-04-28T03:36:57;101652.94;;;13.66;71.29
54556;BME280;57291;37.520;15.106;2023-04-28T03:39:28;101648.19;;;13.53;71.78
54556;BME280;57291;37.520;15.106;2023-04-28T03:41:56;101656.84;;;13.60;72.93
54556;BME280;57291;37.520;15.106;2023-04-28T03:44:42;101656.84;;;13.60;72.70
54556;BME280;57291;37.520;15.106;2023-04-28T03:47:09;101676.53;;;13.57;72.13
54556;BME280;57291;37.520;15.106;2023-04-28T03:49:37;101676.00;;;13.55;71.19
54556;BME280;57291;37.520;15.106;2023-04-28T03:52:04;101677.69;;;13.51;70.55
54556;BME280;57291;37.520;15.106;2023-04-28T03:54:31;101673.97;;;13.42;70.13
54556;BME280;57291;37.520;15.106;2023-04-28T03:56:59;101677.06;;;13.35;69.72
54556;BME280;57291;37.520;15.106;2023-04-28T03:59:27;101681.47;;;13.31;69.30
54556;BME280;57291;37.520;15.106;2023-04-28T04:01:54;101687.72;;;13.36;68.19
54556;BME280;57291;37.520;15.106;2023-04-28T04:04:21;101681.59;;;13.45;65.92
54556;BME280;57291;37.520;15.106;2023-04-28T04:06:50;101681.47;;;13.55;63.96
54556;BME280;57291;37.520;15.106;2023-04-28T04:09:18;101688.00;;;13.59;63.81
54556;BME280;57291;37.520;15.106;2023-04-28T04:11:45;101685.53;;;13.57;62.43
54556;BME280;57291;37.520;15.106;2023-04-28T04:14:12;101687.47;;;13.57;62.68
54556;BME280;57291;37.520;15.106;2023-04-28T04:16:40;101693.16;;;13.60;62.47
54556;BME280;57291;37.520;15.106;2023-04-28T04:19:07;101691.41;;;13.70;66.21
54556;BME280;57291;37.520;15.106;2023-04-28T04:21:39;101703.06;;;13.75;69.24
54556;BME280;57291;37.520;15.106;2023-04-28T04:24:07;101703.41;;;13.69;69.99
54556;BME280;57291;37.520;15.106;2023-04-28T04:26:34;101708.28;;;13.72;70.64
54556;BME280;57291;37.520;15.106;2023-04-28T04:29:09;101710.63;;;13.83;72.40
54556;BME280;57291;37.520;15.106;2023-04-28T04:31:36;101705.09;;;13.89;72.88
54556;BME280;57291;37.520;15.106;2023-04-28T04:34:03;101713.00;;;13.90;72.52
54556;BME280;57291;37.520;15.106;2023-04-28T04:36:31;101721.72;;;13.92;72.28
54556;BME280;57291;37.520;15.106;2023-04-28T04:38:59;101718.16;;;13.92;72.39
54556;BME280;57291;37.520;15.106;2023-04-28T04:41:26;101731.72;;;14.02;72.45
54556;BME280;57291;37.520;15.106;2023-04-28T04:44:10;101731.47;;;14.17;71.97
54556;BME280;57291;37.520;15.106;2023-04-28T04:46:43;101734.59;;;14.29;70.93
54556;BME280;57291;37.520;15.106;2023-04-28T04:49:10;101739.75;;;14.50;69.78
54556;BME280;57291;37.520;15.106;2023-04-28T04:51:38;101742.72;;;14.72;67.37
54556;BME280;57291;37.520;15.106;2023-04-28T04:54:05;101747.84;;;14.93;63.85
54556;BME280;57291;37.520;15.106;2023-04-28T04:56:33;101749.13;;;15.14;59.07
54556;BME280;57291;37.520;15.106;2023-04-28T04:59:01;101746.84;;;15.49;58.21
54556;BME280;57291;37.520;15.106;2023-04-28T05:01:37;101757.63;;;15.87;56.52
54556;BME280;57291;37.520;15.106;2023-04-28T05:04:04;101748.53;;;16.28;56.70
54556;BME280;57291;37.520;15.106;2023-04-28T05:06:32;101751.78;;;17.11;59.97
54556;BME280;57291;37.520;15.106;2023-04-28T05:09:00;101755.09;;;18.45;56.38
54556;BME280;57291;37.520;15.106;2023-04-28T05:11:28;101755.31;;;20.28;50.34
54556;BME280;57291;37.520;15.106;2023-04-28T05:13:55;101762.28;;;22.07;44.26
54556;BME280;57291;37.520;15.106;2023-04-28T05:16:24;101760.66;;;22.99;39.51
54556;BME280;57291;37.520;15.106;2023-04-28T05:19:06;101770.25;;;24.32;38.70
54556;BME280;57291;37.520;15.106;2023-04-28T05:21:33;101779.78;;;25.32;35.50
54556;BME280;57291;37.520;15.106;2023-04-28T05:24:01;101768.19;;;26.02;34.83
54556;BME280;57291;37.520;15.106;2023-04-28T05:26:28;101781.34;;;26.32;33.11
54556;BME280;57291;37.520;15.106;2023-04-28T05:29:01;101781.72;;;26.60;32.95
54556;BME280;57291;37.520;15.106;2023-04-28T05:31:28;101783.22;;;27.22;32.88
54556;BME280;57291;37.520;15.106;2023-04-28T05:33:56;101772.75;;;26.44;32.44
54556;BME280;57291;37.520;15.106;2023-04-28T05:36:24;101776.91;;;26.57;33.65
54556;BME280;57291;37.520;15.106;2023-04-28T05:38:52;101773.47;;;27.05;33.52
54556;BME280;57291;37.520;15.106;2023-04-28T05:41:19;101769.63;;;27.17;32.56
54556;BME280;57291;37.520;15.106;2023-04-28T05:43:47;101773.88;;;27.07;33.19
54556;BME280;57291;37.520;15.106;2023-04-28T05:46:17;101778.06;;;26.86;33.39
54556;BME280;57291;37.520;15.106;2023-04-28T05:48:58;101780.25;;;26.10;34.24
54556;BME280;57291;37.520;15.106;2023-04-28T05:51:28;101791.69;;;25.78;34.71
54556;BME280;57291;37.520;15.106;2023-04-28T05:53:56;101795.28;;;25.56;34.63
54556;BME280;57291;37.520;15.106;2023-04-28T05:56:26;101794.66;;;25.66;34.09
54556;BME280;57291;37.520;15.106;2023-04-28T05:58:54;101791.09;;;25.42;34.64
54556;BME280;57291;37.520;15.106;2023-04-28T06:01:21;101803.53;;;24.67;37.51
54556;BME280;57291;37.520;15.106;2023-04-28T06:03:49;101796.16;;;24.55;37.13
54556;BME280;57291;37.520;15.106;2023-04-28T06:06:16;101792.81;;;24.30;37.08
54556;BME280;57291;37.520;15.106;2023-04-28T06:08:43;101801.41;;;24.80;36.46
54556;BME280;57291;37.520;15.106;2023-04-28T06:11:12;101801.41;;;24.99;36.15
54556;BME280;57291;37.520;15.106;2023-04-28T06:13:40;101805.66;;;25.13;35.89
54556;BME280;57291;37.520;15.106;2023-04-28T06:16:07;101811.81;;;25.45;35.22
54556;BME280;57291;37.520;15.106;2023-04-28T06:18:35;101808.09;;;25.14;35.15
54556;BME280;57291;37.520;15.106;2023-04-28T06:21:03;101806.31;;;25.06;35.29
54556;BME280;57291;37.520;15.106;2023-04-28T06:23:30;101809.63;;;24.73;35.48
54556;BME280;57291;37.520;15.106;2023-04-28T06:25:59;101811.88;;;24.48;34.88
54556;BME280;57291;37.520;15.106;2023-04-28T06:28:26;101811.97;;;24.51;35.32
54556;BME280;57291;37.520;15.106;2023-04-28T06:30:53;101818.53;;;24.63;34.72
54556;BME280;57291;37.520;15.106;2023-04-28T06:33:20;101822.50;;;24.62;35.85
54556;BME280;57291;37.520;15.106;2023-04-28T06:35:47;101816.94;;;24.42;35.78
54556;BME280;57291;37.520;15.106;2023-04-28T06:38:14;101815.72;;;23.92;36.41
54556;BME280;57291;37.520;15.106;2023-04-28T06:40:41;101823.09;;;23.69;37.96
54556;BME280;57291;37.520;15.106;2023-04-28T06:43:09;101824.09;;;23.76;37.40
54556;BME280;57291;37.520;15.106;2023-04-28T06:45:41;101820.53;;;24.11;37.03
54556;BME280;57291;37.520;15.106;2023-04-28T06:48:08;101817.47;;;24.32;36.47
54556;BME280;57291;37.520;15.106;2023-04-28T06:50:37;101828.25;;;24.18;36.79
54556;BME280;57291;37.520;15.106;2023-04-28T06:53:05;101829.56;;;24.24;37.24
54556;BME280;57291;37.520;15.106;2023-04-28T06:55:33;101831.75;;;23.67;38.35
54556;BME280;57291;37.520;15.106;2023-04-28T06:58:00;101838.94;;;23.84;37.68
54556;BME280;57291;37.520;15.106;2023-04-28T07:00:28;101835.41;;;23.55;39.53
54556;BME280;57291;37.520;15.106;2023-04-28T07:02:55;101831.25;;;23.17;38.95
54556;BME280;57291;37.520;15.106;2023-04-28T07:05:22;101834.94;;;23.22;39.01
54556;BME280;57291;37.520;15.106;2023-04-28T07:07:49;101838.13;;;23.08;39.55
54556;BME280;57291;37.520;15.106;2023-04-28T07:10:16;101843.06;;;23.74;37.65
54556;BME280;57291;37.520;15.106;2023-04-28T07:12:44;101832.13;;;23.97;37.65
54556;BME280;57291;37.520;15.106;2023-04-28T07:15:11;101839.13;;;23.15;39.37
54556;BME280;57291;37.520;15.106;2023-04-28T07:17:38;101836.97;;;23.09;39.39
54556;BME280;57291;37.520;15.106;2023-04-28T07:20:06;101843.31;;;23.53;38.77
54556;BME280;57291;37.520;15.106;2023-04-28T07:22:33;101844.56;;;24.03;37.28
54556;BME280;57291;37.520;15.106;2023-04-28T07:25:00;101837.75;;;24.17;36.25
54556;BME280;57291;37.520;15.106;2023-04-28T07:27:27;101848.47;;;24.18;36.43
54556;BME280;57291;37.520;15.106;2023-04-28T07:29:55;101846.69;;;23.62;39.17
54556;BME280;57291;37.520;15.106;2023-04-28T07:32:22;101845.06;;;23.30;39.29
54556;BME280;57291;37.520;15.106;2023-04-28T07:34:50;101841.97;;;23.47;38.28
54556;BME280;57291;37.520;15.106;2023-04-28T07:37:17;101850.63;;;23.61;39.75
54556;BME280;57291;37.520;15.106;2023-04-28T07:39:44;101847.75;;;23.42;40.04
54556;BME280;57291;37.520;15.106;2023-04-28T07:42:12;101845.28;;;23.53;39.67
54556;BME280;57291;37.520;15.106;2023-04-28T07:44:39;101843.28;;;23.37;39.65
54556;BME280;57291;37.520;15.106;2023-04-28T07:47:06;101851.09;;;23.63;39.54
54556;BME280;57291;37.520;15.106;2023-04-28T07:49:34;101854.84;;;23.55;39.70
54556;BME280;57291;37.520;15.106;2023-04-28T07:52:01;101853.88;;;23.63;40.23
54556;BME280;57291;37.520;15.106;2023-04-28T07:54:28;101853.06;;;23.63;38.28
54556;BME280;57291;37.520;15.106;2023-04-28T07:56:55;101851.00;;;23.44;40.71
54556;BME280;57291;37.520;15.106;2023-04-28T07:59:25;101855.34;;;23.29;40.40
54556;BME280;57291;37.520;15.106;2023-04-28T08:01:52;101842.16;;;23.10;38.51
54556;BME280;57291;37.520;15.106;2023-04-28T08:04:19;101850.22;;;22.75;40.77
54556;BME280;57291;37.520;15.106;2023-04-28T08:06:48;101852.50;;;22.45;42.55
54556;BME280;57291;37.520;15.106;2023-04-28T08:09:15;101849.84;;;22.48;42.07
54556;BME280;57291;37.520;15.106;2023-04-28T08:11:42;101857.09;;;22.53;42.72
54556;BME280;57291;37.520;15.106;2023-04-28T08:14:09;101851.72;;;22.32;42.79
54556;BME280;57291;37.520;15.106;2023-04-28T08:16:36;101851.59;;;22.29;43.89
54556;BME280;57291;37.520;15.106;2023-04-28T08:19:06;101860.13;;;21.99;44.14
54556;BME280;57291;37.520;15.106;2023-04-28T08:21:33;101857.94;;;21.92;43.98
54556;BME280;57291;37.520;15.106;2023-04-28T08:24:00;101867.13;;;21.84;44.71
54556;BME280;57291;37.520;15.106;2023-04-28T08:26:28;101875.56;;;21.75;45.22
54556;BME280;57291;37.520;15.106;2023-04-28T08:28:55;101872.41;;;21.65;45.91
54556;BME280;57291;37.520;15.106;2023-04-28T08:31:22;101872.59;;;21.47;47.37
54556;BME280;57291;37.520;15.106;2023-04-28T08:33:49;101870.06;;;21.42;46.98
54556;BME280;57291;37.520;15.106;2023-04-28T08:36:17;101870.34;;;21.07;48.38
54556;BME280;57291;37.520;15.106;2023-04-28T08:38:44;101865.78;;;20.91;48.78
54556;BME280;57291;37.520;15.106;2023-04-28T08:41:14;101856.16;;;20.55;50.24
54556;BME280;57291;37.520;15.106;2023-04-28T08:43:43;101868.22;;;20.92;49.25
54556;BME280;57291;37.520;15.106;2023-04-28T08:46:13;101873.59;;;20.89;48.97
54556;BME280;57291;37.520;15.106;2023-04-28T08:48:42;101876.25;;;20.64;50.67
54556;BME280;57291;37.520;15.106;2023-04-28T08:51:15;101870.72;;;20.64;49.19
54556;BME280;57291;37.520;15.106;2023-04-28T08:53:44;101879.94;;;20.38;49.74
54556;BME280;57291;37.520;15.106;2023-04-28T08:56:36;101876.53;;;19.65;52.47
54556;BME280;57291;37.520;15.106;2023-04-28T08:59:04;101879.69;;;19.29;53.39
54556;BME280;57291;37.520;15.106;2023-04-28T09:01:32;101876.13;;;19.11;53.94
54556;BME280;57291;37.520;15.106;2023-04-28T09:04:02;101877.91;;;18.89;54.49
54556;BME280;57291;37.520;15.106;2023-04-28T09:06:34;101877.75;;;18.86;56.42
54556;BME280;57291;37.520;15.106;2023-04-28T09:09:21;101880.13;;;18.70;56.44
54556;BME280;57291;37.520;15.106;2023-04-28T09:14:18;101881.75;;;18.71;56.11
54556;BME280;57291;37.520;15.106;2023-04-28T09:16:45;101877.59;;;18.82;56.57
54556;BME280;57291;37.520;15.106;2023-04-28T09:19:14;101885.47;;;18.66;55.41
54556;BME280;57291;37.520;15.106;2023-04-28T09:21:59;101884.28;;;18.41;58.60
54556;BME280;57291;37.520;15.106;2023-04-28T09:24:40;101882.56;;;18.05;60.87
54556;BME280;57291;37.520;15.106;2023-04-28T09:27:10;101884.00;;;18.03;61.75
54556;BME280;57291;37.520;15.106;2023-04-28T09:29:38;101891.94;;;18.04;59.85
54556;BME280;57291;37.520;15.106;2023-04-28T09:32:16;101889.88;;;18.10;60.29
54556;BME280;57291;37.520;15.106;2023-04-28T09:34:45;101890.41;;;17.90;62.27
54556;BME280;57291;37.520;15.106;2023-04-28T09:37:15;101887.31;;;18.22;61.36
54556;BME280;57291;37.520;15.106;2023-04-28T09:39:47;101896.28;;;18.45;60.96
54556;BME280;57291;37.520;15.106;2023-04-28T09:45:05;101885.75;;;18.47;61.39
54556;BME280;57291;37.520;15.106;2023-04-28T09:47:35;101880.31;;;18.73;60.73
54556;BME280;57291;37.520;15.106;2023-04-28T09:50:04;101888.06;;;18.71;60.85
54556;BME280;57291;37.520;15.106;2023-04-28T09:52:33;101884.16;;;18.64;61.34
54556;BME280;57291;37.520;15.106;2023-04-28T09:55:06;101888.59;;;18.25;62.26
54556;BME280;57291;37.520;15.106;2023-04-28T09:57:38;101887.53;;;18.43;62.61
54556;BME280;57291;37.520;15.106;2023-04-28T10:00:06;101884.56;;;18.80;62.24
54556;BME280;57291;37.520;15.106;2023-04-28T10:02:36;101890.03;;;19.14;61.23
54556;BME280;57291;37.520;15.106;2023-04-28T10:05:07;101886.31;;;19.36;60.05
54556;BME280;57291;37.520;15.106;2023-04-28T10:07:39;101884.72;;;19.01;61.96
54556;BME280;57291;37.520;15.106;2023-04-28T10:10:07;101892.81;;;18.88;62.10
54556;BME280;57291;37.520;15.106;2023-04-28T10:12:34;101892.75;;;18.54;63.78
54556;BME280;57291;37.520;15.106;2023-04-28T10:15:06;101896.22;;;18.77;63.74
54556;BME280;57291;37.520;15.106;2023-04-28T10:17:33;101894.75;;;18.88;63.14
54556;BME280;57291;37.520;15.106;2023-04-28T10:20:03;101888.41;;;19.31;62.41
54556;BME280;57291;37.520;15.106;2023-04-28T10:25:30;101889.72;;;18.98;62.55
54556;BME280;57291;37.520;15.106;2023-04-28T10:27:59;101884.53;;;18.97;65.50
54556;BME280;57291;37.520;15.106;2023-04-28T10:30:26;101874.81;;;19.26;63.60
54556;BME280;57291;37.520;15.106;2023-04-28T10:35:46;101869.97;;;18.96;62.92
54556;BME280;57291;37.520;15.106;2023-04-28T10:38:17;101874.50;;;18.92;61.74
54556;BME280;57291;37.520;15.106;2023-04-28T10:40:48;101867.53;;;19.04;62.89
54556;BME280;57291;37.520;15.106;2023-04-28T10:56:17;101860.19;;;18.64;65.47
54556;BME280;57291;37.520;15.106;2023-04-28T10:58:48;101861.47;;;18.58;65.88
54556;BME280;57291;37.520;15.106;2023-04-28T11:04:01;101850.94;;;18.51;63.56
54556;BME280;57291;37.520;15.106;2023-04-28T11:12:05;101856.63;;;18.64;66.53
54556;BME280;57291;37.520;15.106;2023-04-28T11:14:36;101863.81;;;18.82;65.58
54556;BME280;57291;37.520;15.106;2023-04-28T11:17:10;101855.03;;;19.15;63.56
54556;BME280;57291;37.520;15.106;2023-04-28T11:19:41;101860.63;;;19.53;55.97
54556;BME280;57291;37.520;15.106;2023-04-28T11:22:16;101869.22;;;19.78;52.61
54556;BME280;57291;37.520;15.106;2023-04-28T11:24:58;101856.00;;;19.92;51.23
54556;BME280;57291;37.520;15.106;2023-04-28T11:27:27;101864.06;;;19.97;50.82
54556;BME280;57291;37.520;15.106;2023-04-28T11:29:55;101857.84;;;19.79;53.05
54556;BME280;57291;37.520;15.106;2023-04-28T11:32:29;101854.78;;;19.72;54.91
54556;BME280;57291;37.520;15.106;2023-04-28T11:34:57;101859.13;;;19.82;55.91
54556;BME280;57291;37.520;15.106;2023-04-28T11:37:25;101869.00;;;19.91;55.32
54556;BME280;57291;37.520;15.106;2023-04-28T11:39:53;101864.66;;;19.73;51.23
54556;BME280;57291;37.520;15.106;2023-04-28T11:42:20;101873.44;;;19.75;50.84
54556;BME280;57291;37.520;15.106;2023-04-28T11:44:51;101861.66;;;19.96;51.11
54556;BME280;57291;37.520;15.106;2023-04-28T11:47:29;101863.91;;;20.02;50.75
54556;BME280;57291;37.520;15.106;2023-04-28T11:49:57;101872.97;;;20.11;52.63
54556;BME280;57291;37.520;15.106;2023-04-28T11:52:24;101860.63;;;20.09;52.55
54556;BME280;57291;37.520;15.106;2023-04-28T11:54:54;101862.69;;;20.21;53.66
54556;BME280;57291;37.520;15.106;2023-04-28T11:57:23;101868.28;;;20.33;53.30
54556;BME280;57291;37.520;15.106;2023-04-28T11:59:51;101864.09;;;20.27;53.94
54556;BME280;57291;37.520;15.106;2023-04-28T12:02:25;101850.72;;;20.37;54.45
54556;BME280;57291;37.520;15.106;2023-04-28T12:05:04;101841.69;;;20.28;54.97
54556;BME280;57291;37.520;15.106;2023-04-28T12:07:40;101846.13;;;20.21;56.43
54556;BME280;57291;37.520;15.106;2023-04-28T12:10:13;101825.28;;;20.02;58.02
54556;BME280;57291;37.520;15.106;2023-04-28T12:12:46;101829.09;;;19.80;59.41
54556;BME280;57291;37.520;15.106;2023-04-28T12:15:19;101816.69;;;19.65;60.49
54556;BME280;57291;37.520;15.106;2023-04-28T12:17:48;101807.56;;;19.74;60.73
54556;BME280;57291;37.520;15.106;2023-04-28T12:20:37;101803.34;;;19.67;61.87
54556;BME280;57291;37.520;15.106;2023-04-28T12:23:05;101805.03;;;19.89;61.98
54556;BME280;57291;37.520;15.106;2023-04-28T12:25:42;101812.41;;;19.77;62.64
54556;BME280;57291;37.520;15.106;2023-04-28T12:28:10;101812.09;;;19.61;63.63
54556;BME280;57291;37.520;15.106;2023-04-28T12:30:37;101796.38;;;19.70;63.96
54556;BME280;57291;37.520;15.106;2023-04-28T12:33:05;101811.28;;;19.78;63.75
54556;BME280;57291;37.520;15.106;2023-04-28T12:35:32;101803.81;;;19.78;64.02
54556;BME280;57291;37.520;15.106;2023-04-28T12:37:59;101810.44;;;19.86;63.98
54556;BME280;57291;37.520;15.106;2023-04-28T12:40:26;101811.34;;;19.99;63.51
54556;BME280;57291;37.520;15.106;2023-04-28T12:42:54;101812.34;;;19.94;64.06
54556;BME280;57291;37.520;15.106;2023-04-28T12:45:21;101807.13;;;19.92;63.85
54556;BME280;57291;37.520;15.106;2023-04-28T12:47:48;101807.63;;;20.24;63.53
54556;BME280;57291;37.520;15.106;2023-04-28T12:50:15;101802.09;;;20.24;61.34
54556;BME280;57291;37.520;15.106;2023-04-28T12:52:42;101808.84;;;20.35;61.10
54556;BME280;57291;37.520;15.106;2023-04-28T12:55:09;101801.06;;;20.08;56.67
54556;BME280;57291;37.520;15.106;2023-04-28T12:57:37;101787.31;;;20.20;54.30
54556;BME280;57291;37.520;15.106;2023-04-28T13:00:06;101791.38;;;20.23;54.32
54556;BME280;57291;37.520;15.106;2023-04-28T13:02:34;101784.16;;;20.09;55.79
54556;BME280;57291;37.520;15.106;2023-04-28T13:05:01;101779.66;;;20.26;56.22
54556;BME280;57291;37.520;15.106;2023-04-28T13:07:29;101777.78;;;20.38;54.02
54556;BME280;57291;37.520;15.106;2023-04-28T13:09:56;101778.06;;;20.46;54.80
54556;BME280;57291;37.520;15.106;2023-04-28T13:12:25;101773.66;;;20.53;52.38
54556;BME280;57291;37.520;15.106;2023-04-28T13:14:52;101781.22;;;20.35;50.17
54556;BME280;57291;37.520;15.106;2023-04-28T13:17:19;101773.00;;;20.27;51.78
54556;BME280;57291;37.520;15.106;2023-04-28T13:19:46;101772.06;;;20.23;52.05
54556;BME280;57291;37.520;15.106;2023-04-28T13:22:13;101777.00;;;20.17;51.63